Terminal Aerodrome Forecast
Issued by NWS

Home | Current Version | Previous Version | Text Only | Print | Product List | Glossary On
Versions: 1 2 3 4 5 6 7 8 9 10 11 12 13 14 15 16 17 18 19 20 21 22 23 24 25 26 27 28 29 30 31 32 33 34 35 36 37 38 39 40 41 42 43
000
FTUS45 KGJT 301741
TAFMTJ
TAF
KMTJ 301741Z 3018/0118 28007KT P6SM FEW070
     FM301900 34006KT P6SM SCT200
     FM010100 26004KT P6SM FEW120 SCT250
     FM010300 14006KT P6SM SCT130 SCT250
     FM010500 14006KT P6SM BKN130
     FM010900 14007KT P6SM SCT070 BKN130
     FM011400 VRB03KT P6SM FEW080 SCT150=

USA.gov is the U.S. government's official web portal to all federal, state and local government web resources and services.